sensor_id;sensor_type;location;lat;lon;timestamp;temperature;humidity
26707;DHT22;14319;49.422;10.934;2022-12-07T00:00:51;3.30;88.50
26707;DHT22;14319;49.422;10.934;2022-12-07T00:02:52;3.20;88.40
26707;DHT22;14319;49.422;10.934;2022-12-07T00:04:52;3.10;88.50
26707;DHT22;14319;49.422;10.934;2022-12-07T00:06:53;3.00;88.70
26707;DHT22;14319;49.422;10.934;2022-12-07T00:08:53;3.00;89.10
26707;DHT22;14319;49.422;10.934;2022-12-07T00:10:54;3.10;89.90
26707;DHT22;14319;49.422;10.934;2022-12-07T00:12:55;3.10;89.50
26707;DHT22;14319;49.422;10.934;2022-12-07T00:14:55;3.10;89.90
26707;DHT22;14319;49.422;10.934;2022-12-07T00:16:56;3.10;89.50
26707;DHT22;14319;49.422;10.934;2022-12-07T00:18:56;3.00;89.20
26707;DHT22;14319;49.422;10.934;2022-12-07T00:21:01;3.00;89.30
26707;DHT22;14319;49.422;10.934;2022-12-07T00:23:01;3.10;89.60
26707;DHT22;14319;49.422;10.934;2022-12-07T00:25:02;3.00;89.30
26707;DHT22;14319;49.422;10.934;2022-12-07T00:27:02;3.00;89.40
26707;DHT22;14319;49.422;10.934;2022-12-07T00:29:04;3.10;89.70
26707;DHT22;14319;49.422;10.934;2022-12-07T00:31:06;3.20;89.70
26707;DHT22;14319;49.422;10.934;2022-12-07T00:33:07;3.20;89.20
26707;DHT22;14319;49.422;10.934;2022-12-07T00:35:07;3.20;88.80
26707;DHT22;14319;49.422;10.934;2022-12-07T00:37:08;3.20;88.70
26707;DHT22;14319;49.422;10.934;2022-12-07T00:39:08;3.20;88.60
26707;DHT22;14319;49.422;10.934;2022-12-07T00:41:13;3.20;88.90
26707;DHT22;14319;49.422;10.934;2022-12-07T00:43:14;3.10;89.10
26707;DHT22;14319;49.422;10.934;2022-12-07T00:45:15;3.30;89.70
26707;DHT22;14319;49.422;10.934;2022-12-07T00:47:15;3.30;88.80
26707;DHT22;14319;49.422;10.934;2022-12-07T00:49:16;3.20;88.50
26707;DHT22;14319;49.422;10.934;2022-12-07T00:51:17;3.20;88.80
26707;DHT22;14319;49.422;10.934;2022-12-07T00:53:18;3.20;89.10
26707;DHT22;14319;49.422;10.934;2022-12-07T00:55:19;3.10;89.20
26707;DHT22;14319;49.422;10.934;2022-12-07T00:57:19;3.20;89.50
26707;DHT22;14319;49.422;10.934;2022-12-07T00:59:20;3.20;88.80
26707;DHT22;14319;49.422;10.934;2022-12-07T01:01:20;3.10;89.20
26707;DHT22;14319;49.422;10.934;2022-12-07T01:03:21;3.00;89.20
26707;DHT22;14319;49.422;10.934;2022-12-07T01:05:21;3.00;89.60
26707;DHT22;14319;49.422;10.934;2022-12-07T01:07:22;3.00;89.40
26707;DHT22;14319;49.422;10.934;2022-12-07T01:09:22;3.00;89.80
26707;DHT22;14319;49.422;10.934;2022-12-07T01:11:24;2.90;89.90
26707;DHT22;14319;49.422;10.934;2022-12-07T01:13:25;2.90;89.70
26707;DHT22;14319;49.422;10.934;2022-12-07T01:15:25;3.00;89.90
26707;DHT22;14319;49.422;10.934;2022-12-07T01:17:26;3.00;89.50
26707;DHT22;14319;49.422;10.934;2022-12-07T01:19:28;3.10;89.50
26707;DHT22;14319;49.422;10.934;2022-12-07T01:21:30;3.00;89.20
26707;DHT22;14319;49.422;10.934;2022-12-07T01:23:33;3.00;89.60
26707;DHT22;14319;49.422;10.934;2022-12-07T01:25:34;3.00;89.20
26707;DHT22;14319;49.422;10.934;2022-12-07T01:27:35;3.00;89.80
26707;DHT22;14319;49.422;10.934;2022-12-07T01:29:35;3.00;90.10
26707;DHT22;14319;49.422;10.934;2022-12-07T01:31:36;3.00;89.00
26707;DHT22;14319;49.422;10.934;2022-12-07T01:33:37;2.90;89.20
26707;DHT22;14319;49.422;10.934;2022-12-07T01:35:37;3.00;89.70
26707;DHT22;14319;49.422;10.934;2022-12-07T01:37:38;3.00;89.40
26707;DHT22;14319;49.422;10.934;2022-12-07T01:39:39;3.00;89.10
26707;DHT22;14319;49.422;10.934;2022-12-07T01:41:40;3.00;89.30
26707;DHT22;14319;49.422;10.934;2022-12-07T01:44:06;3.10;89.60
26707;DHT22;14319;49.422;10.934;2022-12-07T01:46:03;3.10;89.70
26707;DHT22;14319;49.422;10.934;2022-12-07T01:48:04;3.20;88.70
26707;DHT22;14319;49.422;10.934;2022-12-07T01:50:05;3.20;88.50
26707;DHT22;14319;49.422;10.934;2022-12-07T01:52:09;3.30;88.70
26707;DHT22;14319;49.422;10.934;2022-12-07T01:54:11;3.30;88.50
26707;DHT22;14319;49.422;10.934;2022-12-07T01:56:13;3.30;88.70
26707;DHT22;14319;49.422;10.934;2022-12-07T01:58:15;3.30;88.60
26707;DHT22;14319;49.422;10.934;2022-12-07T02:00:16;3.30;88.60
26707;DHT22;14319;49.422;10.934;2022-12-07T02:02:18;3.30;88.60
26707;DHT22;14319;49.422;10.934;2022-12-07T02:04:19;3.30;88.20
26707;DHT22;14319;49.422;10.934;2022-12-07T02:06:22;3.30;88.10
26707;DHT22;14319;49.422;10.934;2022-12-07T02:08:24;3.40;88.70
26707;DHT22;14319;49.422;10.934;2022-12-07T02:10:26;3.20;87.50
26707;DHT22;14319;49.422;10.934;2022-12-07T02:12:27;3.30;88.50
26707;DHT22;14319;49.422;10.934;2022-12-07T02:14:27;3.40;88.00
26707;DHT22;14319;49.422;10.934;2022-12-07T02:16:48;3.30;87.80
26707;DHT22;14319;49.422;10.934;2022-12-07T02:21:03;3.20;87.90
26707;DHT22;14319;49.422;10.934;2022-12-07T02:27:44;3.10;88.20
26707;DHT22;14319;49.422;10.934;2022-12-07T02:29:55;3.10;88.50
26707;DHT22;14319;49.422;10.934;2022-12-07T02:32:03;3.10;89.10
26707;DHT22;14319;49.422;10.934;2022-12-07T02:34:11;3.10;88.50
26707;DHT22;14319;49.422;10.934;2022-12-07T02:36:15;3.10;88.60
26707;DHT22;14319;49.422;10.934;2022-12-07T02:38:24;3.10;89.20
26707;DHT22;14319;49.422;10.934;2022-12-07T02:42:46;3.20;88.40
26707;DHT22;14319;49.422;10.934;2022-12-07T02:44:48;3.30;88.20
26707;DHT22;14319;49.422;10.934;2022-12-07T02:46:51;3.40;88.50
26707;DHT22;14319;49.422;10.934;2022-12-07T02:48:53;3.40;87.00
26707;DHT22;14319;49.422;10.934;2022-12-07T02:50:54;3.30;87.60
26707;DHT22;14319;49.422;10.934;2022-12-07T02:52:55;3.30;87.40
26707;DHT22;14319;49.422;10.934;2022-12-07T02:54:55;3.30;87.60
26707;DHT22;14319;49.422;10.934;2022-12-07T02:56:59;3.20;88.00
26707;DHT22;14319;49.422;10.934;2022-12-07T03:03:15;3.10;87.10
26707;DHT22;14319;49.422;10.934;2022-12-07T03:07:29;3.20;87.20
26707;DHT22;14319;49.422;10.934;2022-12-07T03:09:38;3.30;87.00
26707;DHT22;14319;49.422;10.934;2022-12-07T03:11:50;3.30;87.00
26707;DHT22;14319;49.422;10.934;2022-12-07T03:14:01;3.40;86.90
26707;DHT22;14319;49.422;10.934;2022-12-07T03:18:07;3.40;86.60
26707;DHT22;14319;49.422;10.934;2022-12-07T03:20:09;3.40;86.10
26707;DHT22;14319;49.422;10.934;2022-12-07T03:22:12;3.40;85.90
26707;DHT22;14319;49.422;10.934;2022-12-07T03:24:14;3.40;86.00
26707;DHT22;14319;49.422;10.934;2022-12-07T03:26:16;3.40;86.00
26707;DHT22;14319;49.422;10.934;2022-12-07T03:28:18;3.40;85.90
26707;DHT22;14319;49.422;10.934;2022-12-07T03:30:22;3.50;85.40
26707;DHT22;14319;49.422;10.934;2022-12-07T03:32:25;3.50;85.80
26707;DHT22;14319;49.422;10.934;2022-12-07T03:34:28;3.50;85.60
26707;DHT22;14319;49.422;10.934;2022-12-07T03:36:35;3.50;85.20
26707;DHT22;14319;49.422;10.934;2022-12-07T03:38:39;3.50;84.60
26707;DHT22;14319;49.422;10.934;2022-12-07T03:40:43;3.50;85.20
26707;DHT22;14319;49.422;10.934;2022-12-07T03:42:45;3.50;85.20
26707;DHT22;14319;49.422;10.934;2022-12-07T03:44:46;3.50;85.20
26707;DHT22;14319;49.422;10.934;2022-12-07T03:47:22;3.50;84.70
26707;DHT22;14319;49.422;10.934;2022-12-07T03:49:25;3.50;84.80
26707;DHT22;14319;49.422;10.934;2022-12-07T03:55:38;3.30;85.20
26707;DHT22;14319;49.422;10.934;2022-12-07T03:57:39;3.30;85.50
26707;DHT22;14319;49.422;10.934;2022-12-07T03:59:41;3.20;84.10
26707;DHT22;14319;49.422;10.934;2022-12-07T04:01:43;3.10;84.20
26707;DHT22;14319;49.422;10.934;2022-12-07T04:03:44;2.90;84.70
26707;DHT22;14319;49.422;10.934;2022-12-07T04:05:44;2.90;85.40
26707;DHT22;14319;49.422;10.934;2022-12-07T04:07:45;2.90;85.80
26707;DHT22;14319;49.422;10.934;2022-12-07T04:09:45;3.00;86.00
26707;DHT22;14319;49.422;10.934;2022-12-07T04:11:46;3.00;85.70
26707;DHT22;14319;49.422;10.934;2022-12-07T04:13:46;3.10;85.10
26707;DHT22;14319;49.422;10.934;2022-12-07T04:16:05;3.00;85.30
26707;DHT22;14319;49.422;10.934;2022-12-07T04:18:06;3.10;85.60
26707;DHT22;14319;49.422;10.934;2022-12-07T04:20:06;3.00;84.20
26707;DHT22;14319;49.422;10.934;2022-12-07T04:22:07;2.80;84.60
26707;DHT22;14319;49.422;10.934;2022-12-07T04:24:08;2.70;85.40
26707;DHT22;14319;49.422;10.934;2022-12-07T04:26:08;2.80;85.50
26707;DHT22;14319;49.422;10.934;2022-12-07T04:28:09;2.80;85.80
26707;DHT22;14319;49.422;10.934;2022-12-07T04:30:10;2.70;85.70
26707;DHT22;14319;49.422;10.934;2022-12-07T04:32:10;2.70;85.90
26707;DHT22;14319;49.422;10.934;2022-12-07T04:34:11;2.70;86.00
26707;DHT22;14319;49.422;10.934;2022-12-07T04:36:12;2.60;85.90
26707;DHT22;14319;49.422;10.934;2022-12-07T04:38:12;2.50;86.50
26707;DHT22;14319;49.422;10.934;2022-12-07T04:40:13;2.50;86.40
26707;DHT22;14319;49.422;10.934;2022-12-07T04:42:14;2.60;86.60
26707;DHT22;14319;49.422;10.934;2022-12-07T04:44:15;2.70;86.40
26707;DHT22;14319;49.422;10.934;2022-12-07T04:46:16;2.80;86.00
26707;DHT22;14319;49.422;10.934;2022-12-07T04:48:16;2.90;85.30
26707;DHT22;14319;49.422;10.934;2022-12-07T04:50:17;2.90;85.80
26707;DHT22;14319;49.422;10.934;2022-12-07T04:52:17;2.90;85.30
26707;DHT22;14319;49.422;10.934;2022-12-07T04:54:18;2.80;85.20
26707;DHT22;14319;49.422;10.934;2022-12-07T04:56:19;2.80;85.40
26707;DHT22;14319;49.422;10.934;2022-12-07T04:58:19;2.90;86.20
26707;DHT22;14319;49.422;10.934;2022-12-07T05:00:20;2.90;85.30
26707;DHT22;14319;49.422;10.934;2022-12-07T05:02:20;2.90;84.80
26707;DHT22;14319;49.422;10.934;2022-12-07T05:04:21;2.80;84.60
26707;DHT22;14319;49.422;10.934;2022-12-07T05:06:22;2.80;85.40
26707;DHT22;14319;49.422;10.934;2022-12-07T05:08:22;2.80;85.50
26707;DHT22;14319;49.422;10.934;2022-12-07T05:10:23;2.80;84.90
26707;DHT22;14319;49.422;10.934;2022-12-07T05:12:24;2.80;85.10
26707;DHT22;14319;49.422;10.934;2022-12-07T05:14:24;2.90;85.10
26707;DHT22;14319;49.422;10.934;2022-12-07T05:16:25;2.70;85.40
26707;DHT22;14319;49.422;10.934;2022-12-07T05:18:26;2.80;85.50
26707;DHT22;14319;49.422;10.934;2022-12-07T05:20:26;2.80;85.20
26707;DHT22;14319;49.422;10.934;2022-12-07T05:22:27;2.80;85.60
26707;DHT22;14319;49.422;10.934;2022-12-07T05:24:28;2.80;85.10
26707;DHT22;14319;49.422;10.934;2022-12-07T05:26:29;2.80;84.60
26707;DHT22;14319;49.422;10.934;2022-12-07T05:28:29;2.80;85.00
26707;DHT22;14319;49.422;10.934;2022-12-07T05:30:30;2.80;85.20
26707;DHT22;14319;49.422;10.934;2022-12-07T05:32:30;2.80;84.80
26707;DHT22;14319;49.422;10.934;2022-12-07T05:34:31;2.70;85.40
26707;DHT22;14319;49.422;10.934;2022-12-07T05:36:31;2.80;86.20
26707;DHT22;14319;49.422;10.934;2022-12-07T05:38:32;2.80;85.90
26707;DHT22;14319;49.422;10.934;2022-12-07T05:40:33;2.90;85.80
26707;DHT22;14319;49.422;10.934;2022-12-07T05:42:34;2.90;84.90
26707;DHT22;14319;49.422;10.934;2022-12-07T05:44:34;2.90;84.30
26707;DHT22;14319;49.422;10.934;2022-12-07T05:46:35;2.90;84.40
26707;DHT22;14319;49.422;10.934;2022-12-07T05:48:35;2.90;84.80
26707;DHT22;14319;49.422;10.934;2022-12-07T05:50:36;2.70;84.80
26707;DHT22;14319;49.422;10.934;2022-12-07T05:52:37;2.70;85.70
26707;DHT22;14319;49.422;10.934;2022-12-07T05:54:37;2.70;85.50
26707;DHT22;14319;49.422;10.934;2022-12-07T05:56:38;2.70;85.80
26707;DHT22;14319;49.422;10.934;2022-12-07T05:58:38;2.70;85.10
26707;DHT22;14319;49.422;10.934;2022-12-07T06:00:58;2.70;85.30
26707;DHT22;14319;49.422;10.934;2022-12-07T06:02:58;2.80;85.40
26707;DHT22;14319;49.422;10.934;2022-12-07T06:04:59;2.80;85.20
26707;DHT22;14319;49.422;10.934;2022-12-07T06:06:59;2.90;85.60
26707;DHT22;14319;49.422;10.934;2022-12-07T06:09:00;3.00;85.00
26707;DHT22;14319;49.422;10.934;2022-12-07T06:11:01;3.00;84.40
26707;DHT22;14319;49.422;10.934;2022-12-07T06:13:27;2.90;84.50
26707;DHT22;14319;49.422;10.934;2022-12-07T06:15:28;2.90;85.00
26707;DHT22;14319;49.422;10.934;2022-12-07T06:17:28;2.80;85.10
26707;DHT22;14319;49.422;10.934;2022-12-07T06:19:29;2.90;85.80
26707;DHT22;14319;49.422;10.934;2022-12-07T06:21:32;2.70;84.80
26707;DHT22;14319;49.422;10.934;2022-12-07T06:23:33;2.70;85.30
26707;DHT22;14319;49.422;10.934;2022-12-07T06:25:33;2.70;85.10
26707;DHT22;14319;49.422;10.934;2022-12-07T06:27:34;2.70;84.90
26707;DHT22;14319;49.422;10.934;2022-12-07T06:29:35;2.60;84.80
26707;DHT22;14319;49.422;10.934;2022-12-07T06:31:36;2.60;84.90
26707;DHT22;14319;49.422;10.934;2022-12-07T06:33:37;2.60;85.90
26707;DHT22;14319;49.422;10.934;2022-12-07T06:35:38;2.60;85.10
26707;DHT22;14319;49.422;10.934;2022-12-07T06:37:38;2.50;86.60
26707;DHT22;14319;49.422;10.934;2022-12-07T06:39:39;2.50;85.50
26707;DHT22;14319;49.422;10.934;2022-12-07T06:41:39;2.50;85.60
26707;DHT22;14319;49.422;10.934;2022-12-07T06:43:40;2.50;85.80
26707;DHT22;14319;49.422;10.934;2022-12-07T06:45:41;2.50;86.30
26707;DHT22;14319;49.422;10.934;2022-12-07T06:47:42;2.40;85.60
26707;DHT22;14319;49.422;10.934;2022-12-07T06:49:42;2.60;86.20
26707;DHT22;14319;49.422;10.934;2022-12-07T06:51:43;2.70;85.40
26707;DHT22;14319;49.422;10.934;2022-12-07T06:53:43;2.70;84.80
26707;DHT22;14319;49.422;10.934;2022-12-07T06:55:44;2.70;84.30
26707;DHT22;14319;49.422;10.934;2022-12-07T06:57:44;2.60;84.80
26707;DHT22;14319;49.422;10.934;2022-12-07T06:59:45;2.60;85.00
26707;DHT22;14319;49.422;10.934;2022-12-07T07:01:48;2.50;85.10
26707;DHT22;14319;49.422;10.934;2022-12-07T07:03:49;2.60;84.90
26707;DHT22;14319;49.422;10.934;2022-12-07T07:05:49;2.70;85.50
26707;DHT22;14319;49.422;10.934;2022-12-07T07:07:50;2.70;85.30
26707;DHT22;14319;49.422;10.934;2022-12-07T07:09:50;2.70;85.10
26707;DHT22;14319;49.422;10.934;2022-12-07T07:11:51;2.60;84.70
26707;DHT22;14319;49.422;10.934;2022-12-07T07:13:52;2.70;85.40
26707;DHT22;14319;49.422;10.934;2022-12-07T07:15:53;2.70;85.50
26707;DHT22;14319;49.422;10.934;2022-12-07T07:17:54;2.60;85.00
26707;DHT22;14319;49.422;10.934;2022-12-07T07:19:54;2.50;85.30
26707;DHT22;14319;49.422;10.934;2022-12-07T07:21:55;2.70;85.90
26707;DHT22;14319;49.422;10.934;2022-12-07T07:23:55;2.60;85.40
26707;DHT22;14319;49.422;10.934;2022-12-07T07:25:57;2.70;85.60
26707;DHT22;14319;49.422;10.934;2022-12-07T07:27:57;2.70;85.60
26707;DHT22;14319;49.422;10.934;2022-12-07T07:29:58;2.80;86.10
26707;DHT22;14319;49.422;10.934;2022-12-07T07:31:59;2.80;85.70
26707;DHT22;14319;49.422;10.934;2022-12-07T07:33:59;2.80;86.00
26707;DHT22;14319;49.422;10.934;2022-12-07T07:36:00;2.80;85.80
26707;DHT22;14319;49.422;10.934;2022-12-07T07:38:01;2.80;85.90
26707;DHT22;14319;49.422;10.934;2022-12-07T07:40:01;2.70;85.80
26707;DHT22;14319;49.422;10.934;2022-12-07T07:42:02;2.80;85.60
26707;DHT22;14319;49.422;10.934;2022-12-07T07:44:06;2.90;86.40
26707;DHT22;14319;49.422;10.934;2022-12-07T07:46:07;2.90;85.70
26707;DHT22;14319;49.422;10.934;2022-12-07T07:48:07;3.10;85.20
26707;DHT22;14319;49.422;10.934;2022-12-07T07:50:08;3.00;85.30
26707;DHT22;14319;49.422;10.934;2022-12-07T07:52:09;3.00;85.30
26707;DHT22;14319;49.422;10.934;2022-12-07T07:54:09;3.00;85.10
26707;DHT22;14319;49.422;10.934;2022-12-07T07:56:10;3.10;85.20
26707;DHT22;14319;49.422;10.934;2022-12-07T07:58:10;3.10;85.50
26707;DHT22;14319;49.422;10.934;2022-12-07T08:00:12;3.00;85.20
26707;DHT22;14319;49.422;10.934;2022-12-07T08:02:16;3.00;85.20
26707;DHT22;14319;49.422;10.934;2022-12-07T08:04:17;3.00;85.30
26707;DHT22;14319;49.422;10.934;2022-12-07T08:06:18;3.10;85.40
26707;DHT22;14319;49.422;10.934;2022-12-07T08:08:18;3.10;85.30
26707;DHT22;14319;49.422;10.934;2022-12-07T08:10:19;3.10;85.10
26707;DHT22;14319;49.422;10.934;2022-12-07T08:12:19;3.10;85.40
26707;DHT22;14319;49.422;10.934;2022-12-07T08:14:20;3.10;85.00
26707;DHT22;14319;49.422;10.934;2022-12-07T08:16:20;3.00;85.10
26707;DHT22;14319;49.422;10.934;2022-12-07T08:18:21;3.10;85.30
26707;DHT22;14319;49.422;10.934;2022-12-07T08:20:21;3.10;85.00
26707;DHT22;14319;49.422;10.934;2022-12-07T08:22:22;3.30;85.30
26707;DHT22;14319;49.422;10.934;2022-12-07T08:24:22;3.30;85.10
26707;DHT22;14319;49.422;10.934;2022-12-07T08:26:23;3.30;84.50
26707;DHT22;14319;49.422;10.934;2022-12-07T08:28:24;3.30;84.50
26707;DHT22;14319;49.422;10.934;2022-12-07T08:30:24;3.20;84.60
26707;DHT22;14319;49.422;10.934;2022-12-07T08:32:25;3.20;84.20
26707;DHT22;14319;49.422;10.934;2022-12-07T08:34:25;3.30;84.40
26707;DHT22;14319;49.422;10.934;2022-12-07T08:36:26;3.30;85.10
26707;DHT22;14319;49.422;10.934;2022-12-07T08:38:26;3.30;85.20
26707;DHT22;14319;49.422;10.934;2022-12-07T08:40:27;3.30;84.70
26707;DHT22;14319;49.422;10.934;2022-12-07T08:42:27;3.30;84.50
26707;DHT22;14319;49.422;10.934;2022-12-07T08:44:30;3.30;84.40
26707;DHT22;14319;49.422;10.934;2022-12-07T08:46:35;3.30;84.30
26707;DHT22;14319;49.422;10.934;2022-12-07T08:48:42;3.40;84.10
26707;DHT22;14319;49.422;10.934;2022-12-07T08:50:45;3.30;83.90
26707;DHT22;14319;49.422;10.934;2022-12-07T08:52:48;3.40;83.90
26707;DHT22;14319;49.422;10.934;2022-12-07T08:54:49;3.50;83.70
26707;DHT22;14319;49.422;10.934;2022-12-07T08:56:50;3.50;83.20
26707;DHT22;14319;49.422;10.934;2022-12-07T08:58:52;3.50;83.10
26707;DHT22;14319;49.422;10.934;2022-12-07T09:00:53;3.50;83.90
26707;DHT22;14319;49.422;10.934;2022-12-07T09:02:53;3.50;83.70
26707;DHT22;14319;49.422;10.934;2022-12-07T09:04:54;3.50;83.00
26707;DHT22;14319;49.422;10.934;2022-12-07T09:06:54;3.50;83.30
26707;DHT22;14319;49.422;10.934;2022-12-07T09:08:56;3.50;83.00
26707;DHT22;14319;49.422;10.934;2022-12-07T09:10:58;3.50;83.20
26707;DHT22;14319;49.422;10.934;2022-12-07T09:12:58;3.50;83.20
26707;DHT22;14319;49.422;10.934;2022-12-07T09:15:01;3.40;83.90
26707;DHT22;14319;49.422;10.934;2022-12-07T09:17:07;3.50;84.40
26707;DHT22;14319;49.422;10.934;2022-12-07T09:19:08;3.60;84.10
26707;DHT22;14319;49.422;10.934;2022-12-07T09:21:09;3.60;84.00
26707;DHT22;14319;49.422;10.934;2022-12-07T09:23:09;3.80;84.40
26707;DHT22;14319;49.422;10.934;2022-12-07T09:25:10;3.60;84.00
26707;DHT22;14319;49.422;10.934;2022-12-07T09:27:11;3.60;83.90
26707;DHT22;14319;49.422;10.934;2022-12-07T09:29:11;3.60;84.30
26707;DHT22;14319;49.422;10.934;2022-12-07T09:31:12;3.60;84.80
26707;DHT22;14319;49.422;10.934;2022-12-07T09:33:12;3.60;85.70
26707;DHT22;14319;49.422;10.934;2022-12-07T09:35:13;3.70;86.60
26707;DHT22;14319;49.422;10.934;2022-12-07T09:37:13;3.80;87.50
26707;DHT22;14319;49.422;10.934;2022-12-07T09:39:14;3.80;86.10
26707;DHT22;14319;49.422;10.934;2022-12-07T09:41:14;3.80;86.30
26707;DHT22;14319;49.422;10.934;2022-12-07T09:43:22;3.90;87.50
26707;DHT22;14319;49.422;10.934;2022-12-07T09:45:25;3.90;85.40
26707;DHT22;14319;49.422;10.934;2022-12-07T09:47:27;3.80;86.40
26707;DHT22;14319;49.422;10.934;2022-12-07T09:49:28;3.70;85.80
26707;DHT22;14319;49.422;10.934;2022-12-07T09:51:29;3.70;85.80
26707;DHT22;14319;49.422;10.934;2022-12-07T09:53:33;3.70;86.60
26707;DHT22;14319;49.422;10.934;2022-12-07T09:55:34;3.70;86.10
26707;DHT22;14319;49.422;10.934;2022-12-07T09:57:36;3.70;85.60
26707;DHT22;14319;49.422;10.934;2022-12-07T09:59:37;3.80;86.80
26707;DHT22;14319;49.422;10.934;2022-12-07T10:01:38;3.80;85.10
26707;DHT22;14319;49.422;10.934;2022-12-07T10:03:40;3.70;84.50
26707;DHT22;14319;49.422;10.934;2022-12-07T10:05:43;3.70;85.10
26707;DHT22;14319;49.422;10.934;2022-12-07T10:07:44;3.60;85.40
26707;DHT22;14319;49.422;10.934;2022-12-07T10:09:45;3.70;85.10
26707;DHT22;14319;49.422;10.934;2022-12-07T10:12:05;3.80;84.90
26707;DHT22;14319;49.422;10.934;2022-12-07T10:14:12;3.90;84.40
26707;DHT22;14319;49.422;10.934;2022-12-07T10:16:32;4.00;84.30
26707;DHT22;14319;49.422;10.934;2022-12-07T10:18:38;3.90;83.20
26707;DHT22;14319;49.422;10.934;2022-12-07T10:20:41;3.80;83.90
26707;DHT22;14319;49.422;10.934;2022-12-07T10:24:54;3.70;85.20
26707;DHT22;14319;49.422;10.934;2022-12-07T10:26:55;3.80;84.60
26707;DHT22;14319;49.422;10.934;2022-12-07T10:28:56;3.80;85.20
26707;DHT22;14319;49.422;10.934;2022-12-07T10:31:02;3.80;84.90
26707;DHT22;14319;49.422;10.934;2022-12-07T10:33:08;3.80;84.50
26707;DHT22;14319;49.422;10.934;2022-12-07T10:37:17;3.80;84.40
26707;DHT22;14319;49.422;10.934;2022-12-07T10:39:18;3.90;84.70
26707;DHT22;14319;49.422;10.934;2022-12-07T10:41:19;3.90;84.60
26707;DHT22;14319;49.422;10.934;2022-12-07T10:43:20;4.00;85.30
26707;DHT22;14319;49.422;10.934;2022-12-07T10:45:20;4.10;84.00
26707;DHT22;14319;49.422;10.934;2022-12-07T10:47:38;4.10;84.10
26707;DHT22;14319;49.422;10.934;2022-12-07T10:49:50;4.20;83.90
26707;DHT22;14319;49.422;10.934;2022-12-07T10:52:07;4.30;83.40
26707;DHT22;14319;49.422;10.934;2022-12-07T11:00:23;4.30;83.40
26707;DHT22;14319;49.422;10.934;2022-12-07T11:02:25;4.30;82.70
26707;DHT22;14319;49.422;10.934;2022-12-07T11:04:43;4.20;83.80
26707;DHT22;14319;49.422;10.934;2022-12-07T11:09:02;4.20;83.70
26707;DHT22;14319;49.422;10.934;2022-12-07T11:11:06;4.00;84.00
26707;DHT22;14319;49.422;10.934;2022-12-07T11:13:18;4.10;84.90
26707;DHT22;14319;49.422;10.934;2022-12-07T11:15:22;4.10;84.40
26707;DHT22;14319;49.422;10.934;2022-12-07T11:21:57;4.20;85.40
26707;DHT22;14319;49.422;10.934;2022-12-07T11:30:10;4.40;84.50
26707;DHT22;14319;49.422;10.934;2022-12-07T11:32:18;4.50;84.40
26707;DHT22;14319;49.422;10.934;2022-12-07T11:36:33;4.40;83.60
26707;DHT22;14319;49.422;10.934;2022-12-07T11:38:44;4.50;82.90
26707;DHT22;14319;49.422;10.934;2022-12-07T11:40:47;4.40;83.70
26707;DHT22;14319;49.422;10.934;2022-12-07T11:45:20;4.30;83.40
26707;DHT22;14319;49.422;10.934;2022-12-07T11:51:31;4.30;83.90
26707;DHT22;14319;49.422;10.934;2022-12-07T11:53:34;4.40;84.20
26707;DHT22;14319;49.422;10.934;2022-12-07T11:56:37;4.50;83.80
26707;DHT22;14319;49.422;10.934;2022-12-07T12:00:13;4.60;84.10
26707;DHT22;14319;49.422;10.934;2022-12-07T12:02:16;4.60;83.20
26707;DHT22;14319;49.422;10.934;2022-12-07T12:04:25;4.60;83.90
26707;DHT22;14319;49.422;10.934;2022-12-07T12:06:27;4.50;83.60
26707;DHT22;14319;49.422;10.934;2022-12-07T12:08:29;4.50;83.20
26707;DHT22;14319;49.422;10.934;2022-12-07T12:10:45;4.50;84.10
26707;DHT22;14319;49.422;10.934;2022-12-07T12:21:07;4.60;82.70
26707;DHT22;14319;49.422;10.934;2022-12-07T12:23:16;4.70;83.60
26707;DHT22;14319;49.422;10.934;2022-12-07T12:27:24;4.70;82.60
26707;DHT22;14319;49.422;10.934;2022-12-07T12:29:31;4.50;83.40
26707;DHT22;14319;49.422;10.934;2022-12-07T12:31:35;4.50;83.70
26707;DHT22;14319;49.422;10.934;2022-12-07T12:33:36;4.50;83.60
26707;DHT22;14319;49.422;10.934;2022-12-07T12:35:37;4.50;83.90
26707;DHT22;14319;49.422;10.934;2022-12-07T12:39:38;4.60;82.90
26707;DHT22;14319;49.422;10.934;2022-12-07T12:43:59;4.60;82.80
26707;DHT22;14319;49.422;10.934;2022-12-07T12:48:29;4.40;83.70
26707;DHT22;14319;49.422;10.934;2022-12-07T12:57:00;4.30;83.90
26707;DHT22;14319;49.422;10.934;2022-12-07T12:59:25;4.20;85.10
26707;DHT22;14319;49.422;10.934;2022-12-07T13:01:36;4.20;84.50
26707;DHT22;14319;49.422;10.934;2022-12-07T13:03:39;4.20;84.20
26707;DHT22;14319;49.422;10.934;2022-12-07T13:06:16;4.30;84.80
26707;DHT22;14319;49.422;10.934;2022-12-07T13:08:17;4.30;84.20
26707;DHT22;14319;49.422;10.934;2022-12-07T13:12:19;4.30;84.70
26707;DHT22;14319;49.422;10.934;2022-12-07T13:16:41;4.30;84.60
26707;DHT22;14319;49.422;10.934;2022-12-07T13:18:41;4.30;84.70
26707;DHT22;14319;49.422;10.934;2022-12-07T13:20:43;4.30;84.70
26707;DHT22;14319;49.422;10.934;2022-12-07T13:22:46;4.10;84.40
26707;DHT22;14319;49.422;10.934;2022-12-07T13:24:47;4.20;85.10
26707;DHT22;14319;49.422;10.934;2022-12-07T13:26:48;4.20;84.60
26707;DHT22;14319;49.422;10.934;2022-12-07T13:28:49;4.30;84.80
26707;DHT22;14319;49.422;10.934;2022-12-07T13:30:54;4.20;84.10
26707;DHT22;14319;49.422;10.934;2022-12-07T13:32:58;4.40;84.80
26707;DHT22;14319;49.422;10.934;2022-12-07T13:34:59;4.50;84.50
26707;DHT22;14319;49.422;10.934;2022-12-07T13:37:00;4.40;83.90
26707;DHT22;14319;49.422;10.934;2022-12-07T13:41:15;4.40;84.30
26707;DHT22;14319;49.422;10.934;2022-12-07T13:43:16;4.50;83.80
26707;DHT22;14319;49.422;10.934;2022-12-07T13:45:24;4.30;83.70
26707;DHT22;14319;49.422;10.934;2022-12-07T13:47:46;4.30;84.70
26707;DHT22;14319;49.422;10.934;2022-12-07T13:49:49;4.40;83.80
26707;DHT22;14319;49.422;10.934;2022-12-07T13:51:51;4.40;84.20
26707;DHT22;14319;49.422;10.934;2022-12-07T13:53:53;4.40;84.30
26707;DHT22;14319;49.422;10.934;2022-12-07T13:55:54;4.40;83.80
26707;DHT22;14319;49.422;10.934;2022-12-07T13:57:55;4.30;83.80
26707;DHT22;14319;49.422;10.934;2022-12-07T13:59:55;4.30;84.80
26707;DHT22;14319;49.422;10.934;2022-12-07T14:01:56;4.60;84.20
26707;DHT22;14319;49.422;10.934;2022-12-07T14:04:16;4.60;82.90
26707;DHT22;14319;49.422;10.934;2022-12-07T14:06:19;4.70;83.50
26707;DHT22;14319;49.422;10.934;2022-12-07T14:08:22;4.80;83.00
26707;DHT22;14319;49.422;10.934;2022-12-07T14:12:27;4.90;82.50
26707;DHT22;14319;49.422;10.934;2022-12-07T14:14:29;4.90;82.20
26707;DHT22;14319;49.422;10.934;2022-12-07T14:16:34;4.90;82.50
26707;DHT22;14319;49.422;10.934;2022-12-07T14:20:40;4.90;82.20
26707;DHT22;14319;49.422;10.934;2022-12-07T14:22:40;5.00;82.00
26707;DHT22;14319;49.422;10.934;2022-12-07T14:24:42;5.00;81.80